sensor_id;sensor_type;location;lat;lon;timestamp;pressure;altitude;pressure_sealevel;temperature;humidity
53647;BME280;39550;52.230;5.194;2023-02-28T00:02:19;103107.63;;;3.62;77.29
53647;BME280;39550;52.230;5.194;2023-02-28T00:04:45;103086.22;;;3.48;77.53
53647;BME280;39550;52.230;5.194;2023-02-28T00:07:20;103062.50;;;3.37;77.33
53647;BME280;39550;52.230;5.194;2023-02-28T00:09:46;103080.47;;;3.51;78.05
53647;BME280;39550;52.230;5.194;2023-02-28T00:12:12;103067.81;;;3.40;78.11
53647;BME280;39550;52.230;5.194;2023-02-28T00:14:40;103085.34;;;3.48;77.63
53647;BME280;39550;52.230;5.194;2023-02-28T00:17:05;103109.97;;;3.59;77.96
53647;BME280;39550;52.230;5.194;2023-02-28T00:19:31;103080.00;;;3.45;77.38
53647;BME280;39550;52.230;5.194;2023-02-28T00:21:56;103081.56;;;3.43;77.48
53647;BME280;39550;52.230;5.194;2023-02-28T00:24:22;103091.44;;;3.50;78.09
53647;BME280;39550;52.230;5.194;2023-02-28T00:26:47;103078.47;;;3.47;77.75
53647;BME280;39550;52.230;5.194;2023-02-28T00:29:12;103069.16;;;3.35;78.04
53647;BME280;39550;52.230;5.194;2023-02-28T00:31:38;103097.44;;;3.50;78.21
53647;BME280;39550;52.230;5.194;2023-02-28T00:34:03;103094.09;;;3.51;77.80
53647;BME280;39550;52.230;5.194;2023-02-28T00:36:29;103087.91;;;3.48;77.50
53647;BME280;39550;52.230;5.194;2023-02-28T00:38:54;103106.41;;;3.57;78.04
53647;BME280;39550;52.230;5.194;2023-02-28T00:41:19;103088.66;;;3.47;77.95
53647;BME280;39550;52.230;5.194;2023-02-28T00:43:45;103069.06;;;3.34;78.04
53647;BME280;39550;52.230;5.194;2023-02-28T00:46:10;103108.41;;;3.61;77.91
53647;BME280;39550;52.230;5.194;2023-02-28T00:48:36;103047.44;;;3.29;78.33
53647;BME280;39550;52.230;5.194;2023-02-28T00:51:01;103074.13;;;3.46;77.87
53647;BME280;39550;52.230;5.194;2023-02-28T00:53:27;103078.25;;;3.44;77.74
53647;BME280;39550;52.230;5.194;2023-02-28T00:55:53;103103.06;;;3.58;78.10
53647;BME280;39550;52.230;5.194;2023-02-28T00:58:18;103089.44;;;3.46;77.87
53647;BME280;39550;52.230;5.194;2023-02-28T01:00:44;103070.91;;;3.36;78.16
53647;BME280;39550;52.230;5.194;2023-02-28T01:03:14;103083.56;;;3.47;78.16
53647;BME280;39550;52.230;5.194;2023-02-28T01:05:40;103079.34;;;3.47;78.35
53647;BME280;39550;52.230;5.194;2023-02-28T01:08:06;103067.50;;;3.36;78.16
53647;BME280;39550;52.230;5.194;2023-02-28T01:10:32;103052.06;;;3.22;77.94
53647;BME280;39550;52.230;5.194;2023-02-28T01:12:58;103070.91;;;3.36;78.13
53647;BME280;39550;52.230;5.194;2023-02-28T01:15:23;103050.06;;;3.18;78.07
53647;BME280;39550;52.230;5.194;2023-02-28T01:17:49;103071.72;;;3.35;78.18
53647;BME280;39550;52.230;5.194;2023-02-28T01:20:14;103091.78;;;3.43;78.51
53647;BME280;39550;52.230;5.194;2023-02-28T01:22:40;103113.06;;;3.55;77.74
53647;BME280;39550;52.230;5.194;2023-02-28T01:25:06;103051.19;;;3.22;78.17
53647;BME280;39550;52.230;5.194;2023-02-28T01:27:31;103032.66;;;3.13;78.55
53647;BME280;39550;52.230;5.194;2023-02-28T01:29:56;103059.50;;;3.31;77.76
53647;BME280;39550;52.230;5.194;2023-02-28T01:32:22;103073.16;;;3.44;78.08
53647;BME280;39550;52.230;5.194;2023-02-28T01:34:47;103071.28;;;3.41;78.10
53647;BME280;39550;52.230;5.194;2023-02-28T01:37:13;103069.59;;;3.41;78.08
53647;BME280;39550;52.230;5.194;2023-02-28T01:39:38;103095.31;;;3.56;77.97
53647;BME280;39550;52.230;5.194;2023-02-28T01:42:04;103055.19;;;3.30;78.45
53647;BME280;39550;52.230;5.194;2023-02-28T01:45:14;103091.09;;;3.57;77.80
53647;BME280;39550;52.230;5.194;2023-02-28T01:47:42;103065.41;;;3.42;78.43
53647;BME280;39550;52.230;5.194;2023-02-28T01:50:18;103033.13;;;3.19;78.22
53647;BME280;39550;52.230;5.194;2023-02-28T01:52:46;103015.63;;;3.12;78.38
53647;BME280;39550;52.230;5.194;2023-02-28T01:55:12;103027.28;;;3.20;77.95
53647;BME280;39550;52.230;5.194;2023-02-28T01:57:45;103014.19;;;3.15;78.16
53647;BME280;39550;52.230;5.194;2023-02-28T02:00:14;103066.28;;;3.43;78.48
53647;BME280;39550;52.230;5.194;2023-02-28T02:02:42;103026.25;;;3.18;78.31
53647;BME280;39550;52.230;5.194;2023-02-28T02:05:16;103089.34;;;3.56;78.60
53647;BME280;39550;52.230;5.194;2023-02-28T02:07:44;103050.53;;;3.36;78.42
53647;BME280;39550;52.230;5.194;2023-02-28T02:10:15;103027.69;;;3.26;78.69
53647;BME280;39550;52.230;5.194;2023-02-28T02:13:00;103027.91;;;3.29;78.50
53647;BME280;39550;52.230;5.194;2023-02-28T02:15:54;103079.91;;;3.55;78.49
53647;BME280;39550;52.230;5.194;2023-02-28T02:18:38;103060.63;;;3.47;77.88
53647;BME280;39550;52.230;5.194;2023-02-28T02:24:15;103033.81;;;3.28;78.41
53647;BME280;39550;52.230;5.194;2023-02-28T02:29:59;103027.16;;;3.30;78.20
53647;BME280;39550;52.230;5.194;2023-02-28T02:35:26;103012.53;;;3.16;78.65
53647;BME280;39550;52.230;5.194;2023-02-28T02:41:03;102997.53;;;3.09;78.12
53647;BME280;39550;52.230;5.194;2023-02-28T02:43:40;103076.47;;;3.54;78.81
53647;BME280;39550;52.230;5.194;2023-02-28T02:46:21;103073.03;;;3.54;78.12
53647;BME280;39550;52.230;5.194;2023-02-28T02:48:50;102997.78;;;3.12;78.54
53647;BME280;39550;52.230;5.194;2023-02-28T02:51:19;102994.78;;;3.05;78.12
53647;BME280;39550;52.230;5.194;2023-02-28T02:53:54;103011.63;;;3.15;78.33
53647;BME280;39550;52.230;5.194;2023-02-28T02:56:29;103007.28;;;3.14;78.71
53647;BME280;39550;52.230;5.194;2023-02-28T02:59:03;103038.34;;;3.32;78.20
53647;BME280;39550;52.230;5.194;2023-02-28T03:01:31;103033.81;;;3.28;78.62
53647;BME280;39550;52.230;5.194;2023-02-28T03:04:01;103009.97;;;3.16;78.52
53647;BME280;39550;52.230;5.194;2023-02-28T03:06:28;103026.94;;;3.27;78.35
53647;BME280;39550;52.230;5.194;2023-02-28T03:08:53;103040.31;;;3.36;78.31
53647;BME280;39550;52.230;5.194;2023-02-28T03:11:19;103022.50;;;3.24;78.41
53647;BME280;39550;52.230;5.194;2023-02-28T03:28:00;103013.06;;;3.23;78.64
53647;BME280;39550;52.230;5.194;2023-02-28T03:33:03;102994.22;;;3.10;78.26
53647;BME280;39550;52.230;5.194;2023-02-28T03:35:35;103040.31;;;3.36;78.18
53647;BME280;39550;52.230;5.194;2023-02-28T03:38:31;103070.28;;;3.51;78.64
53647;BME280;39550;52.230;5.194;2023-02-28T03:43:35;103029.47;;;3.27;78.26
53647;BME280;39550;52.230;5.194;2023-02-28T03:46:05;103044.44;;;3.34;78.40
53647;BME280;39550;52.230;5.194;2023-02-28T03:51:03;103017.38;;;3.13;78.84
53647;BME280;39550;52.230;5.194;2023-02-28T03:53:36;103080.47;;;3.51;78.96
53647;BME280;39550;52.230;5.194;2023-02-28T03:58:41;103083.03;;;3.51;79.10
53647;BME280;39550;52.230;5.194;2023-02-28T04:01:13;103045.75;;;3.29;78.62
53647;BME280;39550;52.230;5.194;2023-02-28T04:03:40;103045.00;;;3.30;78.45
53647;BME280;39550;52.230;5.194;2023-02-28T04:06:08;103068.06;;;3.44;79.00
53647;BME280;39550;52.230;5.194;2023-02-28T04:08:38;103032.81;;;3.26;78.66
53647;BME280;39550;52.230;5.194;2023-02-28T04:11:19;103067.81;;;3.40;79.05
53647;BME280;39550;52.230;5.194;2023-02-28T04:13:46;103078.69;;;3.50;78.52
53647;BME280;39550;52.230;5.194;2023-02-28T04:16:11;103035.91;;;3.22;78.27
53647;BME280;39550;52.230;5.194;2023-02-28T04:18:41;103059.72;;;3.34;78.69
53647;BME280;39550;52.230;5.194;2023-02-28T04:21:08;103021.28;;;3.08;78.79
53647;BME280;39550;52.230;5.194;2023-02-28T04:23:34;103017.72;;;3.05;78.85
53647;BME280;39550;52.230;5.194;2023-02-28T04:26:00;103019.50;;;3.06;78.68
53647;BME280;39550;52.230;5.194;2023-02-28T04:28:30;103029.47;;;3.15;78.88
53647;BME280;39550;52.230;5.194;2023-02-28T04:31:03;103013.28;;;3.03;78.44
53647;BME280;39550;52.230;5.194;2023-02-28T04:33:31;103084.44;;;3.47;78.52
53647;BME280;39550;52.230;5.194;2023-02-28T04:36:02;103066.50;;;3.34;78.69
53647;BME280;39550;52.230;5.194;2023-02-28T04:38:30;103010.84;;;3.04;78.76
53647;BME280;39550;52.230;5.194;2023-02-28T04:40:58;103014.19;;;3.03;78.93
53647;BME280;39550;52.230;5.194;2023-02-28T04:43:26;103089.44;;;3.46;79.48
53647;BME280;39550;52.230;5.194;2023-02-28T04:45:51;103070.91;;;3.36;78.71
53647;BME280;39550;52.230;5.194;2023-02-28T04:48:20;103074.47;;;3.38;79.33
53647;BME280;39550;52.230;5.194;2023-02-28T04:50:45;103086.00;;;3.45;78.43
53647;BME280;39550;52.230;5.194;2023-02-28T04:53:10;103053.19;;;3.26;79.02
53647;BME280;39550;52.230;5.194;2023-02-28T04:55:36;103069.38;;;3.38;78.93
53647;BME280;39550;52.230;5.194;2023-02-28T04:58:01;103039.75;;;3.17;79.26
53647;BME280;39550;52.230;5.194;2023-02-28T05:00:27;103062.16;;;3.33;78.99
53647;BME280;39550;52.230;5.194;2023-02-28T05:02:52;103000.22;;;2.98;78.64
53647;BME280;39550;52.230;5.194;2023-02-28T05:05:18;103044.78;;;3.27;78.92
53647;BME280;39550;52.230;5.194;2023-02-28T05:07:44;103007.31;;;3.02;78.84
53647;BME280;39550;52.230;5.194;2023-02-28T05:10:10;103055.19;;;3.30;79.22
53647;BME280;39550;52.230;5.194;2023-02-28T05:12:36;103049.88;;;3.27;79.14
53647;BME280;39550;52.230;5.194;2023-02-28T05:15:02;103055.63;;;3.24;79.20
53647;BME280;39550;52.230;5.194;2023-02-28T05:17:28;103054.97;;;3.27;79.32
53647;BME280;39550;52.230;5.194;2023-02-28T05:19:53;103040.78;;;3.19;78.70
53647;BME280;39550;52.230;5.194;2023-02-28T05:22:19;103032.22;;;3.18;79.51
53647;BME280;39550;52.230;5.194;2023-02-28T05:24:44;103063.59;;;3.29;78.67
53647;BME280;39550;52.230;5.194;2023-02-28T05:27:10;103081.56;;;3.43;79.12
53647;BME280;39550;52.230;5.194;2023-02-28T05:29:35;103063.59;;;3.29;78.96
53647;BME280;39550;52.230;5.194;2023-02-28T05:32:10;103047.66;;;3.20;78.85
53647;BME280;39550;52.230;5.194;2023-02-28T05:34:39;103047.66;;;3.20;79.03
53647;BME280;39550;52.230;5.194;2023-02-28T05:37:06;103027.03;;;3.05;79.11
53647;BME280;39550;52.230;5.194;2023-02-28T05:39:32;103047.28;;;3.15;79.03
53647;BME280;39550;52.230;5.194;2023-02-28T05:41:58;103035.00;;;3.10;79.09
53647;BME280;39550;52.230;5.194;2023-02-28T05:44:23;103091.78;;;3.43;79.01
53647;BME280;39550;52.230;5.194;2023-02-28T05:46:49;103100.19;;;3.41;78.90
53647;BME280;39550;52.230;5.194;2023-02-28T05:49:15;103090.75;;;3.40;79.04
53647;BME280;39550;52.230;5.194;2023-02-28T05:51:40;103090.53;;;3.37;78.95
53647;BME280;39550;52.230;5.194;2023-02-28T05:54:06;103095.09;;;3.41;78.79
53647;BME280;39550;52.230;5.194;2023-02-28T05:56:31;103104.50;;;3.43;78.63
53647;BME280;39550;52.230;5.194;2023-02-28T05:58:59;103106.84;;;3.39;78.78
53647;BME280;39550;52.230;5.194;2023-02-28T06:01:37;103106.59;;;3.36;78.98
53647;BME280;39550;52.230;5.194;2023-02-28T06:04:05;103095.63;;;3.37;78.68
53647;BME280;39550;52.230;5.194;2023-02-28T06:06:30;103101.50;;;3.36;79.05
53647;BME280;39550;52.230;5.194;2023-02-28T06:08:56;103104.84;;;3.35;78.75
53647;BME280;39550;52.230;5.194;2023-02-28T06:11:22;103099.75;;;3.35;78.43
53647;BME280;39550;52.230;5.194;2023-02-28T06:13:53;103097.19;;;3.35;78.72
53647;BME280;39550;52.230;5.194;2023-02-28T06:16:19;103101.50;;;3.36;78.70
53647;BME280;39550;52.230;5.194;2023-02-28T06:18:44;103100.19;;;3.30;78.96
53647;BME280;39550;52.230;5.194;2023-02-28T06:21:12;103109.94;;;3.35;78.85
53647;BME280;39550;52.230;5.194;2023-02-28T06:23:37;103107.28;;;3.34;78.84
53647;BME280;39550;52.230;5.194;2023-02-28T06:26:03;103111.69;;;3.36;78.38
53647;BME280;39550;52.230;5.194;2023-02-28T06:28:28;103118.34;;;3.34;78.35
53647;BME280;39550;52.230;5.194;2023-02-28T06:30:54;103117.59;;;3.35;78.39
53647;BME280;39550;52.230;5.194;2023-02-28T06:33:19;103116.78;;;3.36;79.12
53647;BME280;39550;52.230;5.194;2023-02-28T06:35:47;103106.59;;;3.36;78.34
53647;BME280;39550;52.230;5.194;2023-02-28T06:38:12;103116.78;;;3.36;78.74
53647;BME280;39550;52.230;5.194;2023-02-28T06:40:37;103114.22;;;3.36;78.95
53647;BME280;39550;52.230;5.194;2023-02-28T06:43:03;103113.25;;;3.34;78.52
53647;BME280;39550;52.230;5.194;2023-02-28T06:45:28;103118.34;;;3.34;78.73
53647;BME280;39550;52.230;5.194;2023-02-28T06:47:54;103119.22;;;3.35;78.61
53647;BME280;39550;52.230;5.194;2023-02-28T06:50:20;103120.13;;;3.35;79.01
53647;BME280;39550;52.230;5.194;2023-02-28T06:52:46;103120.13;;;3.35;78.43
53647;BME280;39550;52.230;5.194;2023-02-28T06:55:11;103125.22;;;3.35;78.73
53647;BME280;39550;52.230;5.194;2023-02-28T06:57:37;103108.25;;;3.24;78.50
53647;BME280;39550;52.230;5.194;2023-02-28T07:00:07;103124.97;;;3.32;78.47
53647;BME280;39550;52.230;5.194;2023-02-28T07:02:33;103137.84;;;3.34;78.85
53647;BME280;39550;52.230;5.194;2023-02-28T07:04:58;103130.97;;;3.33;78.65
53647;BME280;39550;52.230;5.194;2023-02-28T07:07:23;103137.97;;;3.35;78.99
53647;BME280;39550;52.230;5.194;2023-02-28T07:09:49;103128.31;;;3.31;79.02
53647;BME280;39550;52.230;5.194;2023-02-28T07:12:14;103140.53;;;3.35;79.29
53647;BME280;39550;52.230;5.194;2023-02-28T07:14:39;103138.72;;;3.34;79.01
53647;BME280;39550;52.230;5.194;2023-02-28T07:17:07;103150.72;;;3.35;79.17
53647;BME280;39550;52.230;5.194;2023-02-28T07:19:32;103136.31;;;3.36;78.81
53647;BME280;39550;52.230;5.194;2023-02-28T07:21:58;103135.44;;;3.35;79.06
53647;BME280;39550;52.230;5.194;2023-02-28T07:24:23;103140.53;;;3.35;78.80
53647;BME280;39550;52.230;5.194;2023-02-28T07:26:53;103138.84;;;3.36;79.19
53647;BME280;39550;52.230;5.194;2023-02-28T07:29:18;103138.97;;;3.37;79.30
53647;BME280;39550;52.230;5.194;2023-02-28T07:31:43;103135.63;;;3.38;78.87
53647;BME280;39550;52.230;5.194;2023-02-28T07:34:09;103138.09;;;3.37;78.57
53647;BME280;39550;52.230;5.194;2023-02-28T07:36:34;103134.63;;;3.36;78.98
53647;BME280;39550;52.230;5.194;2023-02-28T07:38:59;103128.75;;;3.37;78.72
53647;BME280;39550;52.230;5.194;2023-02-28T07:41:25;103126.09;;;3.36;78.72
53647;BME280;39550;52.230;5.194;2023-02-28T07:43:55;103125.44;;;3.38;78.99
53647;BME280;39550;52.230;5.194;2023-02-28T07:46:22;103124.69;;;3.39;78.41
53647;BME280;39550;52.230;5.194;2023-02-28T07:48:48;103128.88;;;3.39;78.59
53647;BME280;39550;52.230;5.194;2023-02-28T07:51:13;103135.88;;;3.41;79.04
53647;BME280;39550;52.230;5.194;2023-02-28T07:53:39;103123.66;;;3.37;78.78
53647;BME280;39550;52.230;5.194;2023-02-28T07:56:04;103118.34;;;3.34;78.74
53647;BME280;39550;52.230;5.194;2023-02-28T07:58:30;103141.06;;;3.43;79.08
53647;BME280;39550;52.230;5.194;2023-02-28T08:00:56;103133.31;;;3.41;78.79
53647;BME280;39550;52.230;5.194;2023-02-28T08:03:23;103140.19;;;3.43;78.59
53647;BME280;39550;52.230;5.194;2023-02-28T08:05:49;103137.66;;;3.43;78.55
53647;BME280;39550;52.230;5.194;2023-02-28T08:08:15;103129.88;;;3.41;78.97
53647;BME280;39550;52.230;5.194;2023-02-28T08:10:42;103139.19;;;3.40;79.04
53647;BME280;39550;52.230;5.194;2023-02-28T08:13:07;103139.19;;;3.40;78.74
53647;BME280;39550;52.230;5.194;2023-02-28T08:15:33;103135.88;;;3.41;78.59
53647;BME280;39550;52.230;5.194;2023-02-28T08:17:58;103134.75;;;3.38;78.57
53647;BME280;39550;52.230;5.194;2023-02-28T08:20:25;103145.19;;;3.41;79.04
53647;BME280;39550;52.230;5.194;2023-02-28T08:22:50;103140.75;;;3.38;79.04
53647;BME280;39550;52.230;5.194;2023-02-28T08:25:16;103144.28;;;3.40;79.21
53647;BME280;39550;52.230;5.194;2023-02-28T08:27:41;103154.47;;;3.40;78.92
53647;BME280;39550;52.230;5.194;2023-02-28T08:30:08;103145.84;;;3.38;78.46
53647;BME280;39550;52.230;5.194;2023-02-28T08:32:34;103140.75;;;3.38;78.97
53647;BME280;39550;52.230;5.194;2023-02-28T08:35:00;103149.38;;;3.40;79.00
53647;BME280;39550;52.230;5.194;2023-02-28T08:37:25;103130.06;;;3.32;79.09
53647;BME280;39550;52.230;5.194;2023-02-28T08:39:51;103151.16;;;3.41;79.09
53647;BME280;39550;52.230;5.194;2023-02-28T08:42:16;103135.97;;;3.43;79.03
53647;BME280;39550;52.230;5.194;2023-02-28T08:44:41;103145.06;;;3.39;78.60
53647;BME280;39550;52.230;5.194;2023-02-28T08:47:07;103148.06;;;3.46;78.43
53647;BME280;39550;52.230;5.194;2023-02-28T08:49:33;103146.97;;;3.42;79.04
53647;BME280;39550;52.230;5.194;2023-02-28T08:51:58;103155.81;;;3.47;78.81
53647;BME280;39550;52.230;5.194;2023-02-28T08:54:24;103144.97;;;3.50;78.55
53647;BME280;39550;52.230;5.194;2023-02-28T08:56:49;103146.75;;;3.51;78.53
53647;BME280;39550;52.230;5.194;2023-02-28T08:59:15;103146.97;;;3.54;78.20
53647;BME280;39550;52.230;5.194;2023-02-28T09:01:41;103146.31;;;3.56;78.41
53647;BME280;39550;52.230;5.194;2023-02-28T09:04:08;103151.31;;;3.55;78.32
53647;BME280;39550;52.230;5.194;2023-02-28T09:06:34;103147.84;;;3.54;78.23
53647;BME280;39550;52.230;5.194;2023-02-28T09:09:00;103146.97;;;3.54;78.72
53647;BME280;39550;52.230;5.194;2023-02-28T09:11:27;103144.53;;;3.55;78.40
53647;BME280;39550;52.230;5.194;2023-02-28T09:13:52;103158.28;;;3.57;78.54
53647;BME280;39550;52.230;5.194;2023-02-28T09:16:17;103153.97;;;3.56;78.49
53647;BME280;39550;52.230;5.194;2023-02-28T09:18:43;103165.84;;;3.56;78.41
53647;BME280;39550;52.230;5.194;2023-02-28T09:21:12;103163.81;;;3.52;78.78
53647;BME280;39550;52.230;5.194;2023-02-28T09:23:40;103151.63;;;3.48;78.57
53647;BME280;39550;52.230;5.194;2023-02-28T09:28:33;103161.38;;;3.53;78.48
53647;BME280;39550;52.230;5.194;2023-02-28T09:30:59;103157.16;;;3.54;78.51
53647;BME280;39550;52.230;5.194;2023-02-28T09:33:25;103159.72;;;3.54;78.67
53647;BME280;39550;52.230;5.194;2023-02-28T09:35:57;103165.84;;;3.56;78.08
53647;BME280;39550;52.230;5.194;2023-02-28T09:38:23;103152.50;;;3.48;78.56
53647;BME280;39550;52.230;5.194;2023-02-28T09:40:51;103160.47;;;3.53;78.89
53647;BME280;39550;52.230;5.194;2023-02-28T09:43:18;103161.81;;;3.48;78.47
53647;BME280;39550;52.230;5.194;2023-02-28T09:45:52;103150.72;;;3.47;78.80
53647;BME280;39550;52.230;5.194;2023-02-28T09:48:28;103165.84;;;3.56;78.52
53647;BME280;39550;52.230;5.194;2023-02-28T09:51:03;103157.50;;;3.58;78.04
53647;BME280;39550;52.230;5.194;2023-02-28T09:53:31;103168.81;;;3.62;77.98
53647;BME280;39550;52.230;5.194;2023-02-28T09:55:59;103162.28;;;3.66;77.77
53647;BME280;39550;52.230;5.194;2023-02-28T09:58:40;103168.50;;;3.69;77.68
53647;BME280;39550;52.230;5.194;2023-02-28T10:01:37;103166.41;;;3.75;77.62
53647;BME280;39550;52.230;5.194;2023-02-28T10:07:17;103174.50;;;3.70;77.57
53647;BME280;39550;52.230;5.194;2023-02-28T10:09:50;103168.75;;;3.72;77.83
53647;BME280;39550;52.230;5.194;2023-02-28T10:12:17;103169.63;;;3.73;77.94
53647;BME280;39550;52.230;5.194;2023-02-28T10:14:47;103170.06;;;3.67;77.46
53647;BME280;39550;52.230;5.194;2023-02-28T10:17:17;103169.28;;;3.68;77.84
53647;BME280;39550;52.230;5.194;2023-02-28T10:20:07;103161.84;;;3.71;78.10
53647;BME280;39550;52.230;5.194;2023-02-28T10:22:52;103163.50;;;3.71;77.85
53647;BME280;39550;52.230;5.194;2023-02-28T10:25:21;103165.19;;;3.70;77.69
53647;BME280;39550;52.230;5.194;2023-02-28T10:27:46;103158.53;;;3.72;77.40
53647;BME280;39550;52.230;5.194;2023-02-28T10:30:13;103156.00;;;3.72;77.71
53647;BME280;39550;52.230;5.194;2023-02-28T10:32:39;103163.75;;;3.74;77.35
53647;BME280;39550;52.230;5.194;2023-02-28T10:35:21;103156.97;;;3.74;77.61
53647;BME280;39550;52.230;5.194;2023-02-28T10:37:49;103149.22;;;3.73;77.07
53647;BME280;39550;52.230;5.194;2023-02-28T10:45:25;103149.00;;;3.82;76.72
53647;BME280;39550;52.230;5.194;2023-02-28T10:47:53;103153.22;;;3.81;77.28
53647;BME280;39550;52.230;5.194;2023-02-28T10:50:44;103147.22;;;3.81;75.53
53647;BME280;39550;52.230;5.194;2023-02-28T10:53:28;103154.09;;;3.82;76.82
53647;BME280;39550;52.230;5.194;2023-02-28T10:56:04;103105.06;;;3.62;76.67
53647;BME280;39550;52.230;5.194;2023-02-28T11:03:55;103139.47;;;3.91;75.37
53647;BME280;39550;52.230;5.194;2023-02-28T11:06:30;103132.03;;;3.94;75.46
53647;BME280;39550;52.230;5.194;2023-02-28T11:08:59;103134.69;;;3.96;75.57
53647;BME280;39550;52.230;5.194;2023-02-28T11:11:26;103129.94;;;4.00;75.17
53647;BME280;39550;52.230;5.194;2023-02-28T11:13:55;103129.38;;;4.04;74.90
53647;BME280;39550;52.230;5.194;2023-02-28T11:16:33;103125.91;;;4.04;74.44
53647;BME280;39550;52.230;5.194;2023-02-28T11:19:00;103127.94;;;3.96;74.63
53647;BME280;39550;52.230;5.194;2023-02-28T11:21:32;103121.16;;;3.97;75.18
53647;BME280;39550;52.230;5.194;2023-02-28T11:24:14;103119.06;;;3.91;75.44
53647;BME280;39550;52.230;5.194;2023-02-28T11:26:46;103112.06;;;3.88;75.41
53647;BME280;39550;52.230;5.194;2023-02-28T11:34:28;103100.75;;;3.85;75.15
53647;BME280;39550;52.230;5.194;2023-02-28T11:36:57;103108.66;;;3.88;74.29
53647;BME280;39550;52.230;5.194;2023-02-28T11:39:31;103103.75;;;3.91;74.73
53647;BME280;39550;52.230;5.194;2023-02-28T11:44:48;103102.19;;;3.93;75.17
53647;BME280;39550;52.230;5.194;2023-02-28T11:55:35;103090.84;;;4.01;73.83
53647;BME280;39550;52.230;5.194;2023-02-28T12:01:03;103084.44;;;4.06;74.53
53647;BME280;39550;52.230;5.194;2023-02-28T12:04:11;103084.63;;;4.09;73.97
53647;BME280;39550;52.230;5.194;2023-02-28T12:11:56;103087.28;;;4.23;74.22
53647;BME280;39550;52.230;5.194;2023-02-28T12:19:51;103076.16;;;4.34;74.23
53647;BME280;39550;52.230;5.194;2023-02-28T12:22:30;103071.69;;;4.43;73.10
53647;BME280;39550;52.230;5.194;2023-02-28T12:27:45;103070.66;;;4.53;72.40
53647;BME280;39550;52.230;5.194;2023-02-28T12:32:56;103060.75;;;4.58;70.67
53647;BME280;39550;52.230;5.194;2023-02-28T12:35:28;103059.41;;;4.63;70.98
53647;BME280;39550;52.230;5.194;2023-02-28T12:38:14;103062.94;;;4.65;70.25
53647;BME280;39550;52.230;5.194;2023-02-28T12:40:50;103058.25;;;4.71;69.64
53647;BME280;39550;52.230;5.194;2023-02-28T12:43:17;103048.03;;;4.71;69.83
53647;BME280;39550;52.230;5.194;2023-02-28T12:45:50;103049.25;;;4.76;69.41
53647;BME280;39550;52.230;5.194;2023-02-28T12:48:24;103036.47;;;4.76;69.50
53647;BME280;39550;52.230;5.194;2023-02-28T12:50:51;103043.75;;;4.84;69.22
53647;BME280;39550;52.230;5.194;2023-02-28T13:02:22;103044.19;;;5.03;70.10
53647;BME280;39550;52.230;5.194;2023-02-28T13:10:15;102997.41;;;5.31;66.99
53647;BME280;39550;52.230;5.194;2023-02-28T13:12:48;102970.50;;;5.36;65.06
53647;BME280;39550;52.230;5.194;2023-02-28T13:15:24;102957.63;;;5.35;64.24
53647;BME280;39550;52.230;5.194;2023-02-28T13:17:53;102986.88;;;5.40;63.10
53647;BME280;39550;52.230;5.194;2023-02-28T13:20:37;102958.69;;;5.25;64.38
53647;BME280;39550;52.230;5.194;2023-02-28T13:23:39;103025.94;;;5.64;64.20
53647;BME280;39550;52.230;5.194;2023-02-28T13:26:08;102995.16;;;5.36;66.12
53647;BME280;39550;52.230;5.194;2023-02-28T13:29:00;103020.53;;;5.46;62.72
53647;BME280;39550;52.230;5.194;2023-02-28T13:35:12;103007.28;;;5.25;62.96
53647;BME280;39550;52.230;5.194;2023-02-28T13:42:11;102961.38;;;5.82;61.92
53647;BME280;39550;52.230;5.194;2023-02-28T13:48:24;102992.63;;;6.33;60.89
53647;BME280;39550;52.230;5.194;2023-02-28T13:58:10;102933.13;;;6.22;59.38
53647;BME280;39550;52.230;5.194;2023-02-28T14:06:29;102926.03;;;6.18;59.92
53647;BME280;39550;52.230;5.194;2023-02-28T14:08:59;102928.34;;;6.28;59.59
53647;BME280;39550;52.230;5.194;2023-02-28T14:11:35;102921.31;;;6.54;61.30
53647;BME280;39550;52.230;5.194;2023-02-28T14:14:09;102929.22;;;6.43;58.16
53647;BME280;39550;52.230;5.194;2023-02-28T14:16:46;102915.09;;;6.35;59.59
53647;BME280;39550;52.230;5.194;2023-02-28T14:19:25;102952.47;;;6.46;60.18
53647;BME280;39550;52.230;5.194;2023-02-28T14:28:12;102964.03;;;6.55;59.72
53647;BME280;39550;52.230;5.194;2023-02-28T14:36:36;102947.94;;;6.27;62.86
53647;BME280;39550;52.230;5.194;2023-02-28T14:39:15;102942.50;;;5.66;64.50
53647;BME280;39550;52.230;5.194;2023-02-28T14:41:42;102914.25;;;5.09;65.41
53647;BME280;39550;52.230;5.194;2023-02-28T14:46:41;102952.91;;;5.27;64.33
53647;BME280;39550;52.230;5.194;2023-02-28T14:49:23;102971.84;;;5.31;65.01
53647;BME280;39550;52.230;5.194;2023-02-28T14:52:15;102939.22;;;5.00;66.39
53647;BME280;39550;52.230;5.194;2023-02-28T14:54:43;102912.47;;;4.82;64.03
53647;BME280;39550;52.230;5.194;2023-02-28T14:57:33;102902.84;;;4.77;68.08
53647;BME280;39550;52.230;5.194;2023-02-28T15:03:18;102949.72;;;4.91;67.19
53647;BME280;39550;52.230;5.194;2023-02-28T15:05:52;102952.19;;;4.90;65.69
53647;BME280;39550;52.230;5.194;2023-02-28T15:08:18;102917.59;;;4.68;64.62
53647;BME280;39550;52.230;5.194;2023-02-28T15:13:43;102915.53;;;4.63;66.78
53647;BME280;39550;52.230;5.194;2023-02-28T15:16:19;102978.53;;;5.02;64.91
53647;BME280;39550;52.230;5.194;2023-02-28T15:19:07;102969.91;;;5.00;69.08
53647;BME280;39550;52.230;5.194;2023-02-28T15:21:37;102973.22;;;4.99;69.92
53647;BME280;39550;52.230;5.194;2023-02-28T15:24:07;102932.91;;;4.68;68.83
53647;BME280;39550;52.230;5.194;2023-02-28T15:26:41;102919.72;;;4.62;67.92
53647;BME280;39550;52.230;5.194;2023-02-28T15:29:16;102914.91;;;4.53;69.84
53647;BME280;39550;52.230;5.194;2023-02-28T15:31:55;102933.50;;;4.64;66.61
53647;BME280;39550;52.230;5.194;2023-02-28T15:34:52;102983.06;;;4.93;69.03
53647;BME280;39550;52.230;5.194;2023-02-28T15:37:39;102976.16;;;4.92;69.81
53647;BME280;39550;52.230;5.194;2023-02-28T15:40:12;102975.97;;;4.89;66.53
53647;BME280;39550;52.230;5.194;2023-02-28T15:42:38;102976.16;;;4.92;67.62